Aledo, Texas
Current Conditions -  °F | °C
As of 5:52 AM on Thursday 27 Nov 2014 (Local Time) from KNFW Reporting Station
Clear Clear  
Wind Chill: 39°   Ceiling: Unl
Heat Index: 42°   Visibility: 10mi
Dew Point: 28°   Wind: 5mph
Humidity: 58%   Direction: 340°NNW
Pressure: 30.54"   Gusts: NA
Location:  32.7°N, 97.6°W
Report Text: KNFW 271152Z AUTO 34004KT 10SM CLR 06/M02 A3054 RMK AO2 SLP321 T00561022 10106 20056 51010
Loading
Personal Weather Stations






























Interactive Weather Map New forecast layout! Learn more

10-Day Weather Forecast

Advertisements
Track Severe Weather on mobile